createdAt,value
2023-05-14T00:00:28.474Z,25.00
2023-05-14T00:01:28.487Z,25.00
2023-05-14T00:02:28.676Z,25.00
2023-05-14T00:03:28.568Z,0.00
2023-05-14T00:04:28.615Z,0.00
2023-05-14T00:05:28.570Z,0.00
2023-05-14T00:06:28.602Z,0.00
2023-05-14T00:07:28.618Z,0.00
2023-05-14T00:08:28.638Z,0.00
2023-05-14T00:09:28.670Z,0.00
2023-05-14T00:10:28.725Z,19.03
2023-05-14T00:11:28.766Z,25.43
2023-05-14T00:12:28.765Z,25.00
2023-05-14T00:13:28.828Z,26.96
2023-05-14T00:14:28.872Z,26.01
2023-05-14T00:15:28.880Z,25.00
2023-05-14T00:16:28.981Z,23.95
2023-05-14T00:17:28.975Z,25.43
2023-05-14T00:18:29.007Z,25.00
2023-05-14T00:19:29.010Z,26.74
2023-05-14T00:20:29.047Z,27.85
2023-05-14T00:21:29.078Z,29.03
2023-05-14T00:22:29.116Z,25.14
2023-05-14T00:23:29.149Z,25.00
2023-05-14T00:24:29.185Z,25.40
2023-05-14T00:25:29.224Z,26.75
2023-05-14T00:26:29.248Z,27.34
2023-05-14T00:27:29.282Z,25.63
2023-05-14T00:28:29.321Z,25.00
2023-05-14T00:29:29.376Z,25.55
2023-05-14T00:30:29.389Z,27.53
2023-05-14T00:31:29.501Z,27.58
2023-05-14T00:32:29.498Z,27.50
2023-05-14T00:33:29.532Z,25.89
2023-05-14T00:34:29.528Z,25.00
2023-05-14T00:35:29.562Z,25.00
2023-05-14T00:36:29.604Z,25.00
2023-05-14T00:37:29.643Z,25.53
2023-05-14T00:38:29.675Z,26.69
2023-05-14T00:39:29.723Z,28.38
2023-05-14T00:40:29.778Z,26.84
2023-05-14T00:41:29.796Z,28.47
2023-05-14T00:42:29.869Z,27.25
2023-05-14T00:43:29.881Z,26.63
2023-05-14T00:44:29.919Z,25.00
2023-05-14T00:45:29.998Z,28.40
2023-05-14T00:46:30.053Z,30.58
2023-05-14T00:47:30.066Z,28.70
2023-05-14T00:48:30.083Z,30.75
2023-05-14T00:49:30.129Z,27.02
2023-05-14T00:50:30.169Z,26.76
2023-05-14T00:51:30.212Z,28.98
2023-05-14T00:52:30.252Z,25.98
2023-05-14T00:53:30.321Z,30.06
2023-05-14T00:54:30.327Z,28.30
2023-05-14T00:55:30.372Z,28.50
2023-05-14T00:56:30.404Z,26.63
2023-05-14T00:57:30.450Z,29.85
2023-05-14T00:58:30.497Z,26.72
2023-05-14T00:59:30.561Z,26.29
2023-05-14T01:00:30.566Z,25.83
2023-05-14T01:01:30.795Z,26.11
2023-05-14T01:02:30.811Z,29.99
2023-05-14T01:03:30.784Z,28.54
2023-05-14T01:04:30.734Z,28.12
2023-05-14T01:05:30.780Z,29.87
2023-05-14T01:06:30.843Z,28.62
2023-05-14T01:07:30.860Z,27.25
2023-05-14T01:08:30.903Z,27.30
2023-05-14T01:09:30.942Z,31.50
2023-05-14T01:10:30.984Z,27.53
2023-05-14T01:11:31.024Z,27.49
2023-05-14T01:12:31.059Z,26.62
2023-05-14T01:13:31.106Z,28.86
2023-05-14T01:14:31.151Z,28.06
2023-05-14T01:15:31.194Z,30.55
2023-05-14T01:16:31.281Z,28.92
2023-05-14T01:17:31.345Z,26.28
2023-05-14T01:18:31.352Z,25.66
2023-05-14T01:19:31.350Z,25.00
2023-05-14T01:20:31.405Z,31.45
2023-05-14T01:21:31.447Z,26.25
2023-05-14T01:22:31.495Z,29.09
2023-05-14T01:23:31.522Z,28.09
2023-05-14T01:24:31.564Z,30.76
2023-05-14T01:25:31.621Z,28.28
2023-05-14T01:26:31.699Z,26.89
2023-05-14T01:27:31.699Z,28.07
2023-05-14T01:28:31.744Z,29.06
2023-05-14T01:29:31.784Z,28.75
2023-05-14T01:30:31.865Z,25.00
2023-05-14T01:31:31.906Z,30.47
2023-05-14T01:32:31.934Z,26.42
2023-05-14T01:33:31.993Z,30.15
2023-05-14T01:34:32.017Z,31.73
2023-05-14T01:35:32.067Z,25.74
2023-05-14T01:36:32.103Z,26.52
2023-05-14T01:37:32.151Z,30.58
2023-05-14T01:38:32.190Z,28.05
2023-05-14T01:39:32.237Z,26.58
2023-05-14T01:40:32.298Z,29.19
2023-05-14T01:41:32.320Z,29.05
2023-05-14T01:42:32.355Z,26.42
2023-05-14T01:43:32.440Z,30.43
2023-05-14T01:44:32.432Z,30.81
2023-05-14T01:45:32.478Z,27.25
2023-05-14T01:46:32.610Z,25.61
2023-05-14T01:47:32.609Z,25.09
2023-05-14T01:48:32.600Z,28.53
2023-05-14T01:49:32.668Z,25.78
2023-05-14T01:50:32.689Z,28.90
2023-05-14T01:51:32.739Z,26.87
2023-05-14T01:52:32.778Z,26.06
2023-05-14T01:53:32.817Z,26.15
2023-05-14T01:54:32.867Z,31.88
2023-05-14T01:55:32.904Z,31.84
2023-05-14T01:56:32.945Z,29.96
2023-05-14T01:57:32.992Z,26.26
2023-05-14T01:58:33.030Z,26.87
2023-05-14T01:59:33.101Z,26.37
2023-05-14T02:00:33.138Z,29.44
2023-05-14T02:01:33.163Z,26.70
2023-05-14T02:02:33.272Z,29.27
2023-05-14T02:03:33.291Z,28.14
2023-05-14T02:04:33.288Z,30.64
2023-05-14T02:05:33.377Z,28.66
2023-05-14T02:06:33.379Z,28.53
2023-05-14T02:07:33.420Z,30.72
2023-05-14T02:08:33.457Z,27.72
2023-05-14T02:09:33.516Z,30.48
2023-05-14T02:10:33.558Z,27.25
2023-05-14T02:11:33.602Z,26.36
2023-05-14T02:12:33.655Z,28.10
2023-05-14T02:13:33.727Z,28.51
2023-05-14T02:14:33.741Z,25.36
2023-05-14T02:15:33.793Z,28.33
2023-05-14T02:16:33.959Z,28.95
2023-05-14T02:17:33.919Z,27.09
2023-05-14T02:18:33.976Z,28.29
2023-05-14T02:19:33.992Z,30.59
2023-05-14T02:20:34.033Z,28.95
2023-05-14T02:21:34.091Z,26.68
2023-05-14T02:22:34.139Z,28.66
2023-05-14T02:23:41.690Z,30.47
2023-05-14T02:24:34.157Z,30.75
2023-05-14T02:25:34.147Z,30.94
2023-05-14T02:26:34.135Z,30.21
2023-05-14T02:27:34.137Z,31.18
2023-05-14T02:28:34.123Z,29.39
2023-05-14T02:29:34.126Z,28.51
2023-05-14T02:30:34.123Z,27.37
2023-05-14T02:31:34.134Z,25.70
2023-05-14T02:32:34.237Z,25.00
2023-05-14T02:33:34.175Z,25.00
2023-05-14T02:34:34.080Z,28.24
2023-05-14T02:35:34.074Z,29.96
2023-05-14T02:36:34.078Z,28.35
2023-05-14T02:37:34.086Z,27.83
2023-05-14T02:38:34.064Z,28.63
2023-05-14T02:39:34.061Z,29.56
2023-05-14T02:40:34.050Z,29.06
2023-05-14T02:41:34.042Z,28.03
2023-05-14T02:42:34.031Z,26.86
2023-05-14T02:43:34.028Z,30.13
2023-05-14T02:44:34.047Z,30.27
2023-05-14T02:45:34.005Z,27.07
2023-05-14T02:46:34.045Z,25.14
2023-05-14T02:47:36.886Z,27.96
2023-05-14T02:48:33.996Z,28.33
2023-05-14T02:49:33.994Z,28.26
2023-05-14T02:50:33.970Z,29.84
2023-05-14T02:51:33.957Z,27.94
2023-05-14T02:52:33.951Z,27.89
2023-05-14T02:53:33.969Z,28.69
2023-05-14T02:54:33.950Z,31.32
2023-05-14T02:55:33.942Z,25.95
2023-05-14T02:56:33.935Z,26.29
2023-05-14T02:57:33.994Z,27.20
2023-05-14T02:58:33.950Z,32.16
2023-05-14T02:59:34.003Z,30.43
2023-05-14T03:00:34.080Z,29.54
2023-05-14T03:01:34.127Z,27.95
2023-05-14T03:02:34.263Z,27.96
2023-05-14T03:03:34.186Z,28.33
2023-05-14T03:04:34.241Z,29.47
2023-05-14T03:05:34.282Z,31.58
2023-05-14T03:06:34.335Z,27.08
2023-05-14T03:07:34.376Z,28.80
2023-05-14T03:08:34.433Z,25.15
2023-05-14T03:09:36.087Z,29.46
2023-05-14T03:10:34.468Z,29.74
2023-05-14T03:11:34.465Z,30.09
2023-05-14T03:12:34.456Z,29.52
2023-05-14T03:13:34.468Z,30.30
2023-05-14T03:14:34.470Z,29.45
2023-05-14T03:15:34.437Z,29.69
2023-05-14T03:16:34.451Z,30.10
2023-05-14T03:17:34.446Z,29.16
2023-05-14T03:18:34.420Z,27.69
2023-05-14T03:19:34.420Z,28.32
2023-05-14T03:20:34.395Z,30.69
2023-05-14T03:21:34.394Z,27.88
2023-05-14T03:22:34.385Z,27.48
2023-05-14T03:23:34.379Z,30.05
2023-05-14T03:24:34.368Z,26.96
2023-05-14T03:25:34.400Z,31.86
2023-05-14T03:26:34.376Z,28.01
2023-05-14T03:27:34.423Z,29.33
2023-05-14T03:28:34.460Z,25.00
2023-05-14T03:29:34.525Z,31.77
2023-05-14T03:30:34.590Z,28.70
2023-05-14T03:31:34.604Z,28.35
2023-05-14T03:32:34.674Z,28.43
2023-05-14T03:33:34.717Z,29.87
2023-05-14T03:34:34.762Z,29.96
2023-05-14T03:35:34.799Z,27.88
2023-05-14T03:36:34.843Z,27.41
2023-05-14T03:37:34.900Z,25.00
2023-05-14T03:38:34.941Z,28.33
2023-05-14T03:39:35.013Z,31.31
2023-05-14T03:40:35.052Z,31.58
2023-05-14T03:41:35.112Z,31.48
2023-05-14T03:42:35.132Z,29.29
2023-05-14T03:43:35.175Z,28.16
2023-05-14T03:44:35.226Z,29.88
2023-05-14T03:45:35.281Z,31.22
2023-05-14T03:46:35.329Z,27.96
2023-05-14T03:47:35.420Z,27.25
2023-05-14T03:48:35.436Z,29.88
2023-05-14T03:49:35.484Z,27.01
2023-05-14T03:50:35.536Z,29.47
2023-05-14T03:51:35.599Z,31.30
2023-05-14T03:52:35.632Z,28.86
2023-05-14T03:53:35.695Z,27.68
2023-05-14T03:54:35.728Z,33.23
2023-05-14T03:55:35.802Z,32.14
2023-05-14T03:56:35.832Z,27.21
2023-05-14T03:57:35.918Z,26.61
2023-05-14T03:58:35.935Z,28.16
2023-05-14T03:59:35.976Z,31.91
2023-05-14T04:00:36.020Z,29.17
2023-05-14T04:01:36.064Z,32.84
2023-05-14T04:02:36.249Z,25.00
2023-05-14T04:03:36.385Z,26.60
2023-05-14T04:04:36.251Z,31.00
2023-05-14T04:05:36.269Z,27.98
2023-05-14T04:06:36.319Z,29.71
2023-05-14T04:07:36.377Z,30.93
2023-05-14T04:08:36.435Z,26.62
2023-05-14T04:09:36.477Z,29.42
2023-05-14T04:10:36.533Z,30.49
2023-05-14T04:11:36.589Z,30.34
2023-05-14T04:12:36.663Z,29.55
2023-05-14T04:13:36.714Z,29.52
2023-05-14T04:14:36.735Z,28.65
2023-05-14T04:15:36.798Z,30.14
2023-05-14T04:16:36.919Z,25.88
2023-05-14T04:17:36.973Z,28.48
2023-05-14T04:18:37.049Z,29.68
2023-05-14T04:19:37.023Z,26.95
2023-05-14T04:20:37.089Z,27.41
2023-05-14T04:21:37.117Z,27.65
2023-05-14T04:22:37.197Z,27.58
2023-05-14T04:23:37.229Z,29.62
2023-05-14T04:24:37.282Z,27.58
2023-05-14T04:25:37.324Z,30.28
2023-05-14T04:26:37.379Z,31.10
2023-05-14T04:27:37.425Z,27.87
2023-05-14T04:28:37.481Z,29.56
2023-05-14T04:29:37.562Z,27.61
2023-05-14T04:30:37.591Z,31.10
2023-05-14T04:31:37.717Z,27.42
2023-05-14T04:32:37.759Z,27.29
2023-05-14T04:33:37.751Z,29.31
2023-05-14T04:34:37.798Z,29.53
2023-05-14T04:35:37.871Z,28.81
2023-05-14T04:36:37.908Z,31.92
2023-05-14T04:37:37.984Z,30.30
2023-05-14T04:38:38.018Z,26.43
2023-05-14T04:39:38.077Z,30.50
2023-05-14T04:40:38.144Z,29.75
2023-05-14T04:41:38.201Z,26.50
2023-05-14T04:42:38.248Z,31.10
2023-05-14T04:43:38.316Z,29.87
2023-05-14T04:44:38.374Z,29.30
2023-05-14T04:45:38.531Z,29.14
2023-05-14T04:46:38.518Z,30.29
2023-05-14T04:47:38.584Z,27.31
2023-05-14T04:48:38.614Z,30.44
2023-05-14T04:49:38.675Z,29.73
2023-05-14T04:50:38.734Z,31.30
2023-05-14T04:51:38.781Z,25.00
2023-05-14T04:52:38.836Z,29.63
2023-05-14T04:53:38.891Z,25.76
2023-05-14T04:54:38.977Z,29.57
2023-05-14T04:55:38.996Z,27.83
2023-05-14T04:56:39.065Z,28.87
2023-05-14T04:57:39.106Z,27.11
2023-05-14T04:58:39.158Z,25.81
2023-05-14T04:59:39.206Z,28.55
2023-05-14T05:00:39.266Z,29.14
2023-05-14T05:01:39.436Z,30.67
2023-05-14T05:02:39.416Z,30.24
2023-05-14T05:03:39.464Z,27.34
2023-05-14T05:04:39.472Z,26.05
2023-05-14T05:05:39.521Z,31.33
2023-05-14T05:06:39.571Z,25.73
2023-05-14T05:07:39.628Z,30.49
2023-05-14T05:08:39.685Z,27.96
2023-05-14T05:09:39.729Z,30.84
2023-05-14T05:10:39.790Z,25.90
2023-05-14T05:11:39.837Z,29.58
2023-05-14T05:12:39.893Z,30.48
2023-05-14T05:13:39.962Z,25.64
2023-05-14T05:14:39.996Z,29.81
2023-05-14T05:15:40.203Z,28.99
2023-05-14T05:16:40.107Z,29.82
2023-05-14T05:17:40.212Z,30.10
2023-05-14T05:18:40.447Z,27.43
2023-05-14T05:19:44.171Z,31.21
2023-05-14T05:20:40.268Z,31.49
2023-05-14T05:21:40.270Z,31.96
2023-05-14T05:22:40.250Z,30.56
2023-05-14T05:23:40.294Z,30.84
2023-05-14T05:24:40.333Z,31.61
2023-05-14T05:25:40.389Z,31.26
2023-05-14T05:26:40.451Z,29.11
2023-05-14T05:27:40.499Z,28.86
2023-05-14T05:28:40.546Z,31.78
2023-05-14T05:29:40.608Z,30.69
2023-05-14T05:30:40.664Z,26.76
2023-05-14T05:31:40.759Z,29.83
2023-05-14T05:32:40.884Z,26.96
2023-05-14T05:33:40.863Z,29.47
2023-05-14T05:34:40.892Z,30.75
2023-05-14T05:35:40.969Z,29.12
2023-05-14T05:36:41.009Z,26.01
2023-05-14T05:37:41.060Z,26.75
2023-05-14T05:38:41.123Z,29.05
2023-05-14T05:39:41.170Z,27.66
2023-05-14T05:40:41.234Z,28.12
2023-05-14T05:41:41.302Z,29.27
2023-05-14T05:42:41.335Z,27.97
2023-05-14T05:43:41.394Z,27.03
2023-05-14T05:44:41.458Z,29.04
2023-05-14T05:45:41.557Z,30.27
2023-05-14T05:46:41.626Z,28.71
2023-05-14T05:47:41.654Z,31.30
2023-05-14T05:48:41.726Z,27.18
2023-05-14T05:49:41.929Z,28.04
2023-05-14T05:50:41.782Z,28.86
2023-05-14T05:51:41.831Z,30.31
2023-05-14T05:52:41.890Z,29.28
2023-05-14T05:53:41.962Z,30.27
2023-05-14T05:54:41.995Z,26.62
2023-05-14T05:55:42.037Z,29.32
2023-05-14T05:56:42.089Z,28.73
2023-05-14T05:57:42.126Z,28.03
2023-05-14T05:58:42.182Z,30.35
2023-05-14T05:59:42.233Z,28.81
2023-05-14T06:00:42.269Z,29.66
2023-05-14T06:01:42.364Z,28.37
2023-05-14T06:02:42.510Z,27.13
2023-05-14T06:03:42.430Z,30.41
2023-05-14T06:04:42.476Z,28.62
2023-05-14T06:05:42.707Z,29.49
2023-05-14T06:06:42.579Z,33.01
2023-05-14T06:07:42.632Z,29.87
2023-05-14T06:08:42.715Z,31.16
2023-05-14T06:09:42.707Z,34.36
2023-05-14T06:10:42.751Z,28.71
2023-05-14T06:11:42.800Z,32.56
2023-05-14T06:12:42.846Z,30.49
2023-05-14T06:13:42.887Z,27.29
2023-05-14T06:14:42.958Z,28.24
2023-05-14T06:15:43.000Z,29.01
2023-05-14T06:16:43.085Z,29.97
2023-05-14T06:17:43.091Z,26.43
2023-05-14T06:18:43.165Z,27.20
2023-05-14T06:19:43.163Z,25.00
2023-05-14T06:20:43.196Z,27.22
2023-05-14T06:21:43.266Z,30.96
2023-05-14T06:22:43.296Z,27.04
2023-05-14T06:23:43.336Z,27.88
2023-05-14T06:24:43.463Z,29.68
2023-05-14T06:25:43.445Z,28.52
2023-05-14T06:26:43.466Z,28.47
2023-05-14T06:27:43.506Z,30.83
2023-05-14T06:28:43.539Z,27.18
2023-05-14T06:29:43.579Z,27.11
2023-05-14T06:30:43.621Z,27.89
2023-05-14T06:31:43.754Z,30.56
2023-05-14T06:32:43.726Z,27.88
2023-05-14T06:33:43.744Z,27.94
2023-05-14T06:34:43.799Z,30.74
2023-05-14T06:35:43.834Z,30.70
2023-05-14T06:36:43.876Z,29.83
2023-05-14T06:37:43.959Z,29.04
2023-05-14T06:38:43.962Z,28.58
2023-05-14T06:39:44.012Z,27.95
2023-05-14T06:40:44.050Z,25.95
2023-05-14T06:41:44.089Z,28.11
2023-05-14T06:42:44.125Z,28.24
2023-05-14T06:43:44.235Z,31.82
2023-05-14T06:44:44.202Z,28.56
2023-05-14T06:45:44.244Z,28.09
2023-05-14T06:46:44.284Z,28.25
2023-05-14T06:47:44.347Z,27.63
2023-05-14T06:48:44.388Z,29.06
2023-05-14T06:49:44.394Z,31.96
2023-05-14T06:50:44.437Z,29.23
2023-05-14T06:51:44.480Z,28.06
2023-05-14T06:52:44.514Z,28.43
2023-05-14T06:53:44.612Z,28.66
2023-05-14T06:54:44.613Z,31.02
2023-05-14T06:55:44.641Z,28.96
2023-05-14T06:56:44.684Z,29.50
2023-05-14T06:57:44.721Z,28.86
2023-05-14T06:58:44.781Z,27.17
2023-05-14T06:59:44.799Z,27.20
2023-05-14T07:00:44.839Z,28.68
2023-05-14T07:01:44.935Z,27.62
2023-05-14T07:02:44.995Z,29.80
2023-05-14T07:03:44.949Z,28.52
2023-05-14T07:04:45.020Z,27.96
2023-05-14T07:05:45.024Z,31.19
2023-05-14T07:06:45.060Z,29.46
2023-05-14T07:07:45.104Z,27.25
2023-05-14T07:08:45.137Z,27.91
2023-05-14T07:09:45.207Z,27.67
2023-05-14T07:10:45.206Z,28.68
2023-05-14T07:11:45.247Z,26.28
2023-05-14T07:12:45.284Z,27.71
2023-05-14T07:13:45.325Z,28.38
2023-05-14T07:14:45.359Z,29.23
2023-05-14T07:15:45.390Z,31.81
2023-05-14T07:16:45.441Z,30.63
2023-05-14T07:17:45.484Z,27.38
2023-05-14T07:18:45.533Z,29.16
2023-05-14T07:19:45.513Z,29.69
2023-05-14T07:20:45.550Z,26.76
2023-05-14T07:21:45.591Z,27.19
2023-05-14T07:22:45.615Z,31.06
2023-05-14T07:23:45.649Z,29.18
2023-05-14T07:24:45.677Z,28.19
2023-05-14T07:25:45.735Z,25.83
2023-05-14T07:26:45.738Z,30.83
2023-05-14T07:27:45.772Z,29.72
2023-05-14T07:28:45.803Z,33.18
2023-05-14T07:29:45.824Z,31.03
2023-05-14T07:30:45.852Z,26.82
2023-05-14T07:31:45.890Z,28.08
2023-05-14T07:32:45.952Z,31.39
2023-05-14T07:33:45.944Z,30.17
2023-05-14T07:34:45.964Z,30.26
2023-05-14T07:35:45.986Z,30.73
2023-05-14T07:36:46.025Z,28.78
2023-05-14T07:37:46.044Z,28.88
2023-05-14T07:38:46.066Z,31.41
2023-05-14T07:39:46.098Z,30.80
2023-05-14T07:40:46.123Z,32.07
2023-05-14T07:41:46.171Z,31.59
2023-05-14T07:42:46.177Z,27.53
2023-05-14T07:43:46.220Z,32.13
2023-05-14T07:44:46.224Z,30.14
2023-05-14T07:45:46.251Z,29.48
2023-05-14T07:46:46.270Z,29.77
2023-05-14T07:47:46.444Z,33.26
2023-05-14T07:48:46.352Z,29.53
2023-05-14T07:49:46.336Z,32.89
2023-05-14T07:50:46.364Z,33.20
2023-05-14T07:51:46.377Z,30.91
2023-05-14T07:52:46.400Z,31.37
2023-05-14T07:53:46.460Z,32.52
2023-05-14T07:54:47.144Z,29.50
2023-05-14T07:55:46.505Z,31.51
2023-05-14T07:56:46.527Z,29.89
2023-05-14T07:57:46.569Z,30.74
2023-05-14T07:58:46.566Z,31.72
2023-05-14T07:59:46.608Z,31.01
2023-05-14T08:00:46.616Z,31.50
2023-05-14T08:01:46.638Z,31.95
2023-05-14T08:02:46.764Z,33.14
2023-05-14T08:03:46.810Z,34.30
2023-05-14T08:04:46.693Z,33.68
2023-05-14T08:05:46.731Z,32.52
2023-05-14T08:06:46.743Z,31.65
2023-05-14T08:07:46.763Z,33.52
2023-05-14T08:08:46.788Z,33.70
2023-05-14T08:09:46.808Z,32.13
2023-05-14T08:10:46.830Z,35.30
2023-05-14T08:11:46.843Z,33.48
2023-05-14T08:12:46.859Z,35.26
2023-05-14T08:13:46.924Z,35.55
2023-05-14T08:14:46.913Z,38.65
2023-05-14T08:15:47.674Z,36.84
2023-05-14T08:16:46.971Z,36.45
2023-05-14T08:17:46.981Z,35.69
2023-05-14T08:18:47.081Z,35.74
2023-05-14T08:19:47.012Z,35.11
2023-05-14T08:20:47.028Z,35.81
2023-05-14T08:21:47.057Z,34.39
2023-05-14T08:22:47.065Z,32.74
2023-05-14T08:23:47.081Z,34.67
2023-05-14T08:24:47.089Z,35.48
2023-05-14T08:25:47.108Z,34.19
2023-05-14T08:26:47.127Z,37.55
2023-05-14T08:27:47.141Z,34.86
2023-05-14T08:28:47.154Z,33.49
2023-05-14T08:29:47.220Z,38.14
2023-05-14T08:30:47.198Z,35.02
2023-05-14T08:31:47.187Z,33.71
2023-05-14T08:32:47.216Z,35.18
2023-05-14T08:33:47.228Z,31.78
2023-05-14T08:34:47.237Z,34.10
2023-05-14T08:35:47.256Z,35.84
2023-05-14T08:36:47.269Z,36.68
2023-05-14T08:37:47.294Z,36.97
2023-05-14T08:38:47.289Z,35.78
2023-05-14T08:39:47.321Z,32.72
2023-05-14T08:40:48.195Z,37.22
2023-05-14T08:41:47.382Z,35.87
2023-05-14T08:42:47.355Z,31.88
2023-05-14T08:43:47.357Z,35.90
2023-05-14T08:44:47.359Z,34.20
2023-05-14T08:45:47.461Z,31.86
2023-05-14T08:46:47.382Z,36.74
2023-05-14T08:47:47.411Z,36.99
2023-05-14T08:48:47.436Z,38.58
2023-05-14T08:49:47.410Z,33.83
2023-05-14T08:50:47.426Z,33.72
2023-05-14T08:51:47.433Z,36.56
2023-05-14T08:52:47.427Z,33.16
2023-05-14T08:53:47.433Z,34.59
2023-05-14T08:54:47.441Z,34.51
2023-05-14T08:55:47.481Z,33.80
2023-05-14T08:56:48.186Z,35.94
2023-05-14T08:57:47.452Z,37.77
2023-05-14T08:58:47.430Z,39.05
2023-05-14T08:59:47.429Z,39.31
2023-05-14T09:00:47.416Z,37.77
2023-05-14T09:01:47.439Z,38.90
2023-05-14T09:02:47.446Z,33.55
2023-05-14T09:03:47.411Z,35.99
2023-05-14T09:04:47.390Z,34.98
2023-05-14T09:05:47.385Z,34.37
2023-05-14T09:06:47.379Z,36.30
2023-05-14T09:07:47.382Z,34.64
2023-05-14T09:08:47.364Z,37.46
2023-05-14T09:09:47.362Z,36.84
2023-05-14T09:10:47.346Z,38.89
2023-05-14T09:11:47.337Z,33.33
2023-05-14T09:12:47.338Z,32.58
2023-05-14T09:13:47.330Z,33.05
2023-05-14T09:14:47.319Z,31.69
2023-05-14T09:15:47.320Z,35.53
2023-05-14T09:16:47.344Z,31.77
2023-05-14T09:17:47.404Z,32.34
2023-05-14T09:18:47.332Z,31.74
2023-05-14T09:19:47.289Z,31.87
2023-05-14T09:20:47.286Z,32.01
2023-05-14T09:21:47.289Z,31.96
2023-05-14T09:22:47.279Z,31.14
2023-05-14T09:23:47.258Z,32.21
2023-05-14T09:24:47.252Z,35.73
2023-05-14T09:25:47.250Z,31.69
2023-05-14T09:26:47.240Z,34.13
2023-05-14T09:27:47.239Z,33.50
2023-05-14T09:28:47.241Z,34.10
2023-05-14T09:29:47.228Z,34.80
2023-05-14T09:30:47.211Z,34.80
2023-05-14T09:31:47.217Z,33.39
2023-05-14T09:32:47.235Z,34.41
2023-05-14T09:33:47.222Z,37.42
2023-05-14T09:34:47.193Z,35.67
2023-05-14T09:35:47.174Z,33.84
2023-05-14T09:36:47.170Z,33.26
2023-05-14T09:37:47.163Z,36.56
2023-05-14T09:38:47.150Z,35.99
2023-05-14T09:39:47.147Z,36.20
2023-05-14T09:40:47.145Z,35.55
2023-05-14T09:41:47.127Z,32.92
2023-05-14T09:42:47.120Z,35.17
2023-05-14T09:43:47.120Z,37.07
2023-05-14T09:44:47.118Z,35.40
2023-05-14T09:45:47.105Z,35.47
2023-05-14T09:46:47.129Z,38.81
2023-05-14T09:47:47.181Z,35.92
2023-05-14T09:48:47.095Z,38.08
2023-05-14T09:49:47.100Z,35.26
2023-05-14T09:50:47.085Z,35.41
2023-05-14T09:51:47.066Z,36.81
2023-05-14T09:52:47.057Z,37.89
2023-05-14T09:53:47.045Z,35.31
2023-05-14T09:54:47.045Z,38.28
2023-05-14T09:55:47.025Z,32.50
2023-05-14T09:56:47.026Z,37.65
2023-05-14T09:57:47.028Z,37.87
2023-05-14T09:58:47.016Z,38.73
2023-05-14T09:59:47.014Z,35.83
2023-05-14T10:00:47.052Z,38.49
2023-05-14T10:01:47.026Z,37.81
2023-05-14T10:02:47.095Z,40.97
2023-05-14T10:03:46.981Z,38.74
2023-05-14T10:04:47.034Z,40.03
2023-05-14T10:05:47.008Z,38.52
2023-05-14T10:06:46.968Z,37.51
2023-05-14T10:07:46.947Z,41.29
2023-05-14T10:08:46.937Z,39.15
2023-05-14T10:09:46.937Z,39.49
2023-05-14T10:10:46.924Z,40.92
2023-05-14T10:11:46.920Z,40.20
2023-05-14T10:12:46.924Z,39.96
2023-05-14T10:13:46.922Z,44.08
2023-05-14T10:14:46.908Z,41.71
2023-05-14T10:15:46.918Z,41.83
2023-05-14T10:16:46.934Z,41.49
2023-05-14T10:17:46.946Z,40.12
2023-05-14T10:18:46.927Z,43.36
2023-05-14T10:19:46.862Z,44.44
2023-05-14T10:20:46.864Z,43.58
2023-05-14T10:21:46.872Z,41.31
2023-05-14T10:22:46.845Z,41.97
2023-05-14T10:23:46.834Z,44.41
2023-05-14T10:24:46.828Z,41.41
2023-05-14T10:25:46.827Z,47.50
2023-05-14T10:26:46.846Z,40.39
2023-05-14T10:27:46.829Z,43.24
2023-05-14T10:28:46.804Z,42.52
2023-05-14T10:29:46.811Z,42.59
2023-05-14T10:30:46.978Z,42.35
2023-05-14T10:31:47.011Z,40.02
2023-05-14T10:32:46.810Z,43.39
2023-05-14T10:33:46.775Z,47.92
2023-05-14T10:34:46.763Z,44.02
2023-05-14T10:35:46.772Z,44.56
2023-05-14T10:36:46.758Z,42.47
2023-05-14T10:37:46.814Z,44.92
2023-05-14T10:38:46.747Z,46.08
2023-05-14T10:39:46.770Z,40.97
2023-05-14T10:40:46.732Z,42.84
2023-05-14T10:41:46.726Z,43.40
2023-05-14T10:42:46.725Z,43.67
2023-05-14T10:43:46.709Z,43.01
2023-05-14T10:44:46.706Z,43.00
2023-05-14T10:45:46.725Z,44.35
2023-05-14T10:46:46.712Z,42.83
2023-05-14T10:47:46.804Z,39.77
2023-05-14T10:48:46.686Z,46.00
2023-05-14T10:49:46.681Z,45.38
2023-05-14T10:50:46.712Z,41.18
2023-05-14T10:51:46.678Z,45.69
2023-05-14T10:52:46.731Z,42.96
2023-05-14T10:53:46.736Z,44.29
2023-05-14T10:54:46.732Z,47.24
2023-05-14T10:55:46.752Z,44.73
2023-05-14T10:56:46.774Z,42.61
2023-05-14T10:57:46.804Z,43.52
2023-05-14T10:58:46.820Z,46.69
2023-05-14T10:59:46.827Z,44.78
2023-05-14T11:00:46.848Z,45.11
2023-05-14T11:01:46.949Z,45.86
2023-05-14T11:02:47.009Z,48.22
2023-05-14T11:03:47.135Z,46.73
2023-05-14T11:04:46.934Z,46.40
2023-05-14T11:05:46.947Z,46.92
2023-05-14T11:06:46.959Z,49.37
2023-05-14T11:07:46.955Z,47.66
2023-05-14T11:08:46.958Z,46.60
2023-05-14T11:09:46.998Z,48.49
2023-05-14T11:10:46.963Z,48.74
2023-05-14T11:11:46.960Z,46.07
2023-05-14T11:12:46.981Z,44.10
2023-05-14T11:13:46.958Z,49.63
2023-05-14T11:14:46.957Z,49.48
2023-05-14T11:15:46.954Z,46.60
2023-05-14T11:16:46.985Z,47.21
2023-05-14T11:17:47.017Z,50.19
2023-05-14T11:18:46.977Z,48.84
2023-05-14T11:19:47.905Z,49.69
2023-05-14T11:20:46.948Z,50.04
2023-05-14T11:21:47.020Z,52.46
2023-05-14T11:22:46.940Z,50.85
2023-05-14T11:23:46.997Z,49.44
2023-05-14T11:24:46.941Z,50.73
2023-05-14T11:25:46.953Z,50.76
2023-05-14T11:26:46.917Z,47.36
2023-05-14T11:27:46.924Z,51.53
2023-05-14T11:28:46.902Z,50.47
2023-05-14T11:29:46.883Z,51.94
2023-05-14T11:30:46.877Z,48.76
2023-05-14T11:31:46.897Z,51.14
2023-05-14T11:32:46.901Z,51.43
2023-05-14T11:33:46.855Z,52.08
2023-05-14T11:34:46.866Z,47.31
2023-05-14T11:35:46.876Z,50.71
2023-05-14T11:36:46.840Z,49.94
2023-05-14T11:37:46.827Z,50.84
2023-05-14T11:38:46.821Z,52.21
2023-05-14T11:39:46.814Z,49.45
2023-05-14T11:40:46.810Z,50.21
2023-05-14T11:41:46.862Z,54.32
2023-05-14T11:42:46.814Z,49.32
2023-05-14T11:43:46.791Z,48.86
2023-05-14T11:44:46.789Z,50.13
2023-05-14T11:45:46.810Z,50.20
2023-05-14T11:46:46.766Z,55.40
2023-05-14T11:47:46.816Z,55.06
2023-05-14T11:48:46.803Z,50.72
2023-05-14T11:49:46.751Z,51.19
2023-05-14T11:50:46.745Z,52.39
2023-05-14T11:51:46.737Z,51.96
2023-05-14T11:52:46.728Z,53.82
2023-05-14T11:53:46.730Z,50.12
2023-05-14T11:54:46.724Z,51.56
2023-05-14T11:55:46.709Z,50.82
2023-05-14T11:56:46.702Z,51.12
2023-05-14T11:57:46.726Z,52.03
2023-05-14T11:58:46.688Z,53.41
2023-05-14T11:59:46.692Z,52.65
2023-05-14T12:00:46.723Z,50.20
2023-05-14T12:01:47.331Z,52.47
2023-05-14T12:02:46.747Z,59.14
2023-05-14T12:03:46.763Z,57.59
2023-05-14T12:04:46.688Z,53.82
2023-05-14T12:05:46.689Z,53.58
2023-05-14T12:06:46.648Z,53.68
2023-05-14T12:07:46.621Z,52.35
2023-05-14T12:08:46.615Z,52.03
2023-05-14T12:09:46.610Z,54.79
2023-05-14T12:10:46.600Z,55.27
2023-05-14T12:11:46.602Z,52.62
2023-05-14T12:12:46.587Z,50.98
2023-05-14T12:13:46.605Z,51.93
2023-05-14T12:14:46.573Z,52.56
2023-05-14T12:15:46.576Z,53.00
2023-05-14T12:16:46.745Z,53.67
2023-05-14T12:17:46.588Z,53.51
2023-05-14T12:18:46.573Z,49.47
2023-05-14T12:19:46.534Z,51.18
2023-05-14T12:20:46.535Z,51.78
2023-05-14T12:21:46.522Z,51.20
2023-05-14T12:22:46.517Z,51.01
2023-05-14T12:23:46.502Z,52.11
2023-05-14T12:24:46.497Z,50.38
2023-05-14T12:25:46.500Z,50.82
2023-05-14T12:26:46.491Z,50.31
2023-05-14T12:27:46.484Z,48.49
2023-05-14T12:28:46.476Z,50.53
2023-05-14T12:29:46.489Z,48.99
2023-05-14T12:30:46.510Z,50.02
2023-05-14T12:31:46.484Z,51.71
2023-05-14T12:32:46.534Z,52.78
2023-05-14T12:33:46.465Z,53.31
2023-05-14T12:34:46.437Z,53.38
2023-05-14T12:35:46.423Z,54.01
2023-05-14T12:36:46.423Z,54.37
2023-05-14T12:37:46.437Z,59.67
2023-05-14T12:38:46.400Z,53.71
2023-05-14T12:39:46.399Z,58.13
2023-05-14T12:40:46.393Z,53.45
2023-05-14T12:41:46.386Z,56.69
2023-05-14T12:42:46.378Z,53.75
2023-05-14T12:43:46.369Z,54.45
2023-05-14T12:44:46.362Z,55.78
2023-05-14T12:45:46.379Z,53.86
2023-05-14T12:46:46.407Z,54.64
2023-05-14T12:47:46.432Z,55.56
2023-05-14T12:48:46.397Z,56.03
2023-05-14T12:49:46.324Z,55.28
2023-05-14T12:50:46.321Z,56.70
2023-05-14T12:51:46.303Z,57.72
2023-05-14T12:52:46.301Z,59.98